Sale, United Kingdom
Current Conditions -  °F | °C
As of 9:20 AM on Sunday 28 Dec 2014 (Local Time) from EGCC Reporting Station
Light Fog Light Fog  
Wind Chill: 28°   Ceiling: Unl
Heat Index: 28°   Visibility: 6mi
Dew Point: 27°   Wind: 2mph
Humidity: 93%   Direction: NA
Pressure: 30.48"   Gusts: NA
Location:  53.42°N, 2.32°W
Report Text: EGCC 280920Z VRB02KT 9999 BCFG FEW025 M02/M03 Q1032
Loading
Personal Weather Stations






























Interactive Weather Map New forecast layout! Learn more

10-Day Weather Forecast

Advertisements
Track Severe Weather on mobile